createdAt,value
2022-12-19T00:00:40.683Z,100580.84
2022-12-19T00:02:42.796Z,100580.75
2022-12-19T00:04:45.565Z,100581.66
2022-12-19T00:06:47.627Z,100570.69
2022-12-19T00:08:51.513Z,100565.50
2022-12-19T00:10:57.021Z,100564.75
2022-12-19T00:12:58.934Z,100559.56
2022-12-19T00:15:00.819Z,100558.00
2022-12-19T00:17:03.906Z,100564.84
2022-12-19T00:19:06.108Z,100570.25
2022-12-19T00:21:08.816Z,100558.91
2022-12-19T00:23:11.240Z,100554.53
2022-12-19T00:25:13.216Z,100554.63
2022-12-19T00:27:16.336Z,100559.09
2022-12-19T00:29:18.439Z,100551.41
2022-12-19T00:31:22.625Z,100537.69
2022-12-19T00:33:24.604Z,100537.72
2022-12-19T00:35:26.588Z,100542.13
2022-12-19T00:37:28.478Z,100546.38
2022-12-19T00:39:30.410Z,100536.28
2022-12-19T00:41:34.788Z,100536.19
2022-12-19T00:43:37.220Z,100530.31
2022-12-19T00:45:39.358Z,100530.25
2022-12-19T00:47:41.344Z,100534.53
2022-12-19T00:49:43.246Z,100529.47
2022-12-19T00:51:46.314Z,100524.53
2022-12-19T00:53:50.109Z,100533.91
2022-12-19T00:55:52.033Z,100528.59
2022-12-19T00:57:53.990Z,100524.47
2022-12-19T00:59:59.224Z,100531.44
2022-12-19T01:02:01.203Z,100534.81
2022-12-19T01:06:28.099Z,100522.00
2022-12-19T01:08:30.450Z,100531.50
2022-12-19T01:10:33.390Z,100527.31
2022-12-19T01:12:38.532Z,100522.25
2022-12-19T01:14:40.424Z,100527.47
2022-12-19T01:16:42.378Z,100517.00
2022-12-19T01:18:44.275Z,100521.53
2022-12-19T01:20:47.754Z,100502.75
2022-12-19T01:22:49.689Z,100512.28
2022-12-19T01:24:51.550Z,100511.41
2022-12-19T01:26:53.496Z,100507.97
2022-12-19T01:28:55.404Z,100502.91
2022-12-19T01:30:57.830Z,100502.13
2022-12-19T01:33:01.191Z,100516.72
2022-12-19T01:35:04.212Z,100505.53
2022-12-19T01:37:06.148Z,100512.47
2022-12-19T01:39:08.728Z,100504.03
2022-12-19T01:41:10.869Z,100510.00
2022-12-19T01:43:15.113Z,100505.69
2022-12-19T01:45:17.756Z,100513.47
2022-12-19T01:47:19.844Z,100503.25
2022-12-19T01:49:28.221Z,100497.28
2022-12-19T01:51:36.386Z,100509.34
2022-12-19T01:53:49.814Z,100510.22
2022-12-19T01:55:52.349Z,100513.69
2022-12-19T01:57:56.180Z,100518.59
2022-12-19T02:00:00.302Z,100499.78
2022-12-19T02:02:11.828Z,100512.03
2022-12-19T02:04:14.821Z,100517.13
2022-12-19T02:06:16.873Z,100514.63
2022-12-19T02:08:19.206Z,100517.06
2022-12-19T02:10:21.395Z,100513.56
2022-12-19T02:12:25.825Z,100505.00
2022-12-19T02:14:28.508Z,100506.72
2022-12-19T02:16:36.746Z,100505.00
2022-12-19T02:18:48.378Z,100512.03
2022-12-19T02:20:56.430Z,100505.19
2022-12-19T02:23:00.075Z,100508.44
2022-12-19T02:25:06.531Z,100499.13
2022-12-19T02:27:22.312Z,100488.97
2022-12-19T02:29:37.337Z,100491.53
2022-12-19T02:31:44.185Z,100504.44
2022-12-19T02:33:56.214Z,100490.78
2022-12-19T02:36:08.506Z,100489.91
2022-12-19T02:38:15.959Z,100485.50
2022-12-19T02:40:24.432Z,100500.97
2022-12-19T02:42:31.973Z,100478.81
2022-12-19T02:44:38.770Z,100484.78
2022-12-19T02:46:43.556Z,100498.44
2022-12-19T02:48:47.747Z,100496.06
2022-12-19T02:50:50.383Z,100486.59
2022-12-19T02:52:52.835Z,100502.06
2022-12-19T02:55:01.802Z,100505.50
2022-12-19T02:57:19.128Z,100496.06
2022-12-19T02:59:33.115Z,100490.00
2022-12-19T03:01:39.736Z,100493.53
2022-12-19T03:03:46.259Z,100489.22
2022-12-19T03:05:54.535Z,100489.22
2022-12-19T03:07:59.289Z,100488.31
2022-12-19T03:10:13.287Z,100491.81
2022-12-19T03:12:21.214Z,100496.09
2022-12-19T03:14:24.640Z,100501.41
2022-12-19T03:16:27.390Z,100501.22
2022-12-19T03:18:29.580Z,100506.38
2022-12-19T03:20:34.268Z,100505.53
2022-12-19T03:22:36.417Z,100515.88
2022-12-19T03:24:38.388Z,100521.13
2022-12-19T03:26:45.162Z,100513.28
2022-12-19T03:28:50.313Z,100498.72
2022-12-19T03:30:54.359Z,100508.16
2022-12-19T03:32:56.827Z,100487.66
2022-12-19T03:35:04.536Z,100527.88
2022-12-19T03:37:10.695Z,100517.50
2022-12-19T03:39:16.421Z,100499.44
2022-12-19T03:41:41.250Z,100505.56
2022-12-19T03:43:45.644Z,100510.09
2022-12-19T03:45:52.424Z,100513.56
2022-12-19T03:48:00.412Z,100504.09
2022-12-19T03:50:02.605Z,100499.72
2022-12-19T03:52:10.766Z,100512.59
2022-12-19T03:54:19.238Z,100505.91
2022-12-19T03:56:27.339Z,100517.06
2022-12-19T03:58:36.533Z,100524.84
2022-12-19T04:00:41.673Z,100538.50
2022-12-19T04:02:47.589Z,100522.25
2022-12-19T04:04:56.908Z,100529.06
2022-12-19T04:06:59.987Z,100517.97
2022-12-19T04:09:03.239Z,100524.06
2022-12-19T04:11:11.418Z,100519.69
2022-12-19T04:13:17.286Z,100516.25
2022-12-19T04:15:27.131Z,100519.69
2022-12-19T04:17:37.459Z,100514.59
2022-12-19T04:19:45.038Z,100519.53
2022-12-19T04:21:53.323Z,100510.16
2022-12-19T04:24:02.925Z,100506.75
2022-12-19T04:26:05.924Z,100531.63
2022-12-19T04:28:14.121Z,100503.31
2022-12-19T04:30:17.953Z,100510.22
2022-12-19T04:32:21.004Z,100513.56
2022-12-19T04:34:22.915Z,100505.00
2022-12-19T04:36:26.699Z,100499.81
2022-12-19T04:38:28.815Z,100512.91
2022-12-19T04:40:30.741Z,100512.69
2022-12-19T04:42:32.671Z,100513.63
2022-12-19T04:44:34.594Z,100510.22
2022-12-19T04:46:36.551Z,100524.75
2022-12-19T04:48:38.668Z,100497.31
2022-12-19T04:50:40.824Z,100521.22
2022-12-19T04:52:42.724Z,100510.97
2022-12-19T04:54:44.676Z,100500.56
2022-12-19T04:56:46.724Z,100515.97
2022-12-19T04:58:48.792Z,100518.63
2022-12-19T05:00:50.696Z,100530.66
2022-12-19T05:02:52.886Z,100510.88
2022-12-19T05:04:55.286Z,100504.94
2022-12-19T05:06:57.655Z,100502.34
2022-12-19T05:09:01.136Z,100514.25
2022-12-19T05:11:04.384Z,100525.50
2022-12-19T05:13:06.326Z,100528.84
2022-12-19T05:15:09.356Z,100518.47
2022-12-19T05:17:11.347Z,100514.22
2022-12-19T05:19:13.364Z,100515.81
2022-12-19T05:21:15.290Z,100517.66
2022-12-19T05:23:17.895Z,100531.50
2022-12-19T05:25:19.920Z,100523.63
2022-12-19T05:27:22.015Z,100529.00
2022-12-19T05:29:24.236Z,100518.69
2022-12-19T05:31:26.213Z,100519.50
2022-12-19T05:33:28.209Z,100533.31
2022-12-19T05:35:30.310Z,100529.78
2022-12-19T05:37:32.249Z,100511.75
2022-12-19T05:39:35.182Z,100529.72
2022-12-19T05:41:37.154Z,100533.16
2022-12-19T05:43:39.123Z,100517.84
2022-12-19T05:45:41.089Z,100513.53
2022-12-19T05:47:46.770Z,100523.97
2022-12-19T05:49:48.648Z,100523.19
2022-12-19T05:51:50.647Z,100523.16
2022-12-19T05:53:52.589Z,100521.53
2022-12-19T05:56:05.307Z,100529.06
2022-12-19T05:58:07.200Z,100524.94
2022-12-19T06:00:10.086Z,100518.06
2022-12-19T06:02:12.058Z,100515.34
2022-12-19T06:04:14.208Z,100523.25
2022-12-19T06:06:18.461Z,100522.38
2022-12-19T06:08:20.379Z,100519.88
2022-12-19T06:10:22.458Z,100524.19
2022-12-19T06:12:24.379Z,100521.59
2022-12-19T06:14:26.939Z,100503.34
2022-12-19T06:16:28.992Z,100506.75
2022-12-19T06:18:31.668Z,100510.25
2022-12-19T06:20:33.567Z,100504.25
2022-12-19T06:22:35.534Z,100526.59
2022-12-19T06:24:37.642Z,100516.31
2022-12-19T06:26:39.539Z,100513.69
2022-12-19T06:28:41.509Z,100498.28
2022-12-19T06:30:43.526Z,100506.78
2022-12-19T06:32:45.518Z,100506.81
2022-12-19T06:35:03.685Z,100486.16
2022-12-19T06:37:08.311Z,100489.66
2022-12-19T06:39:14.346Z,100494.78
2022-12-19T06:41:20.742Z,100486.16
2022-12-19T06:43:26.345Z,100478.31
2022-12-19T06:45:28.291Z,100492.09
2022-12-19T06:47:30.366Z,100489.59
2022-12-19T06:49:32.604Z,100492.16
2022-12-19T06:51:35.294Z,100492.06
2022-12-19T06:53:37.219Z,100479.34
2022-12-19T06:55:39.426Z,100485.38
2022-12-19T06:57:46.121Z,100475.06
2022-12-19T06:59:48.097Z,100496.66
2022-12-19T07:01:53.677Z,100484.53
2022-12-19T07:03:56.093Z,100498.31
2022-12-19T07:05:58.153Z,100512.13
2022-12-19T07:08:00.538Z,100508.59
2022-12-19T07:10:02.610Z,100497.41
2022-12-19T07:12:05.121Z,100496.56
2022-12-19T07:14:07.069Z,100513.91
2022-12-19T07:16:12.429Z,100507.00
2022-12-19T07:18:14.556Z,100509.59
2022-12-19T07:20:17.753Z,100517.31
2022-12-19T07:22:19.975Z,100512.16
2022-12-19T07:24:22.306Z,100532.91
2022-12-19T07:26:24.249Z,100534.44
2022-12-19T07:28:26.387Z,100539.66
2022-12-19T07:30:28.631Z,100544.78
2022-12-19T07:32:30.611Z,100533.66
2022-12-19T07:34:32.650Z,100544.88
2022-12-19T07:36:34.545Z,100540.53
2022-12-19T07:38:36.851Z,100551.69
2022-12-19T07:40:38.828Z,100553.56
2022-12-19T07:42:40.750Z,100534.63
2022-12-19T07:44:42.651Z,100546.66
2022-12-19T07:46:45.315Z,100520.03
2022-12-19T07:48:47.269Z,100529.44
2022-12-19T07:50:49.434Z,100536.16
2022-12-19T07:52:51.367Z,100537.13
2022-12-19T07:54:53.353Z,100524.22
2022-12-19T07:56:55.284Z,100531.97
2022-12-19T07:58:57.400Z,100524.28
2022-12-19T08:01:01.043Z,100539.78
2022-12-19T08:03:03.226Z,100532.16
2022-12-19T08:05:06.192Z,100543.31
2022-12-19T08:07:08.175Z,100525.19
2022-12-19T08:09:10.452Z,100572.38
2022-12-19T08:11:17.434Z,100537.91
2022-12-19T08:13:19.358Z,100544.84
2022-12-19T08:15:21.372Z,100545.78
2022-12-19T08:17:23.404Z,100537.22
2022-12-19T08:19:27.657Z,100574.84
2022-12-19T08:21:30.779Z,100550.88
2022-12-19T08:23:33.512Z,100565.47
2022-12-19T08:25:35.419Z,100553.53
2022-12-19T08:27:37.436Z,100557.84
2022-12-19T08:29:39.752Z,100552.59
2022-12-19T08:31:41.690Z,100573.19
2022-12-19T08:33:44.155Z,100559.53
2022-12-19T08:35:46.167Z,100568.09
2022-12-19T08:37:48.166Z,100581.94
2022-12-19T08:39:50.274Z,100570.66
2022-12-19T08:41:52.450Z,100576.78
2022-12-19T08:43:55.503Z,100574.97
2022-12-19T08:45:58.595Z,100572.38
2022-12-19T08:48:00.628Z,100581.06
2022-12-19T08:50:02.657Z,100566.31
2022-12-19T08:52:04.687Z,100566.25
2022-12-19T08:54:09.245Z,100571.41
2022-12-19T08:56:17.699Z,100561.19
2022-12-19T08:58:19.744Z,100568.00
2022-12-19T09:00:22.314Z,100575.91
2022-12-19T09:02:25.907Z,100557.09
2022-12-19T09:05:57.669Z,100569.13
2022-12-19T09:06:50.605Z,100570.75
2022-12-19T09:08:53.808Z,100569.88
2022-12-19T09:11:06.635Z,100578.38
2022-12-19T09:13:08.936Z,100584.50
2022-12-19T09:15:11.219Z,100588.84
2022-12-19T09:17:13.550Z,100571.63
2022-12-19T09:19:16.661Z,100578.47
2022-12-19T09:21:20.724Z,100566.50
2022-12-19T09:23:23.613Z,100576.78
2022-12-19T09:25:25.638Z,100569.06
2022-12-19T09:27:27.622Z,100561.44
2022-12-19T09:29:34.896Z,100575.19
2022-12-19T09:31:37.875Z,100570.00
2022-12-19T09:33:43.670Z,100572.50
2022-12-19T09:35:49.857Z,100570.84
2022-12-19T09:37:59.760Z,100588.94
2022-12-19T09:40:02.261Z,100595.72
2022-12-19T09:42:10.542Z,100579.47
2022-12-19T09:44:16.161Z,100599.28
2022-12-19T09:46:24.031Z,100592.31
2022-12-19T09:48:26.099Z,100587.97
2022-12-19T09:50:36.278Z,100595.69
2022-12-19T09:52:46.349Z,100600.00
2022-12-19T09:54:51.912Z,100582.03
2022-12-19T09:57:00.003Z,100586.28
2022-12-19T09:59:14.109Z,100601.75
2022-12-19T10:01:22.769Z,100600.97
2022-12-19T10:03:26.738Z,100610.34
2022-12-19T10:06:11.411Z,100585.53
2022-12-19T10:08:09.853Z,100589.78
2022-12-19T10:12:40.406Z,100590.63
2022-12-19T10:12:49.252Z,100597.56
2022-12-19T10:14:57.112Z,100600.91
2022-12-19T10:17:24.283Z,100588.84
2022-12-19T10:19:33.271Z,100586.19
2022-12-19T10:24:12.842Z,100591.22
2022-12-19T10:26:16.624Z,100589.47
2022-12-19T10:28:24.854Z,100590.44
2022-12-19T10:30:29.148Z,100599.91
2022-12-19T10:32:43.529Z,100617.94
2022-12-19T10:34:48.549Z,100600.72
2022-12-19T10:39:29.297Z,100634.22
2022-12-19T10:41:32.793Z,100621.16
2022-12-19T10:43:46.688Z,100622.22
2022-12-19T10:45:54.381Z,100604.16
2022-12-19T10:47:58.327Z,100613.53
2022-12-19T10:50:04.041Z,100615.28
2022-12-19T10:52:11.767Z,100635.00
2022-12-19T10:54:13.864Z,100619.47
2022-12-19T10:56:31.705Z,100618.69
2022-12-19T10:58:38.394Z,100617.81
2022-12-19T11:00:46.584Z,100598.75
2022-12-19T11:02:53.838Z,100598.06
2022-12-19T11:04:56.024Z,100605.56
2022-12-19T11:07:01.540Z,100594.25
2022-12-19T11:09:09.742Z,100584.81
2022-12-19T11:13:18.511Z,100592.56
2022-12-19T11:17:35.246Z,100591.69
2022-12-19T11:21:44.191Z,100581.19
2022-12-19T11:27:25.471Z,100586.59
2022-12-19T11:29:25.862Z,100577.09
2022-12-19T11:30:09.082Z,100582.22
2022-12-19T11:30:46.259Z,100567.63
2022-12-19T11:30:49.024Z,100595.13
2022-12-19T11:31:51.041Z,100578.00
2022-12-19T11:33:19.821Z,100562.59
2022-12-19T11:35:36.511Z,100558.31
2022-12-19T11:37:55.092Z,100559.13
2022-12-19T11:40:03.669Z,100550.50
2022-12-19T11:42:17.252Z,100545.28
2022-12-19T11:44:29.943Z,100553.09
2022-12-19T11:46:38.711Z,100534.97
2022-12-19T11:48:47.256Z,100542.47
2022-12-19T11:50:53.889Z,100535.81
2022-12-19T11:53:06.646Z,100553.13
2022-12-19T11:55:16.979Z,100543.34
2022-12-19T11:57:19.345Z,100539.09
2022-12-19T11:59:27.205Z,100547.03
2022-12-19T12:01:33.779Z,100536.72
2022-12-19T12:03:39.441Z,100531.53
2022-12-19T12:05:44.574Z,100533.25
2022-12-19T12:09:10.488Z,100538.44
2022-12-19T12:14:41.428Z,100539.31
2022-12-19T12:18:53.381Z,100519.69
2022-12-19T12:27:27.514Z,100507.72
2022-12-19T12:30:59.798Z,100505.09
2022-12-19T12:31:22.092Z,100501.63
2022-12-19T12:31:38.594Z,100517.97
2022-12-19T12:31:48.721Z,100508.53
2022-12-19T12:32:05.068Z,100500.69
2022-12-19T12:32:05.784Z,100510.16
2022-12-19T12:35:38.053Z,100507.66
2022-12-19T12:37:49.462Z,100481.84
2022-12-19T12:40:16.015Z,100477.63
2022-12-19T12:42:29.913Z,100484.47
2022-12-19T12:44:42.873Z,100459.38
2022-12-19T12:47:01.625Z,100463.78
2022-12-19T12:49:06.704Z,100473.16
2022-12-19T12:51:10.775Z,100454.09
2022-12-19T12:53:16.461Z,100469.69
2022-12-19T12:55:24.727Z,100444.00
2022-12-19T12:57:29.008Z,100443.16
2022-12-19T12:59:32.638Z,100455.94
2022-12-19T13:01:39.187Z,100453.47
2022-12-19T13:03:43.062Z,100446.53
2022-12-19T13:05:47.055Z,100460.34
2022-12-19T13:07:53.696Z,100445.81
2022-12-19T13:10:16.628Z,100445.91
2022-12-19T13:12:28.782Z,100490.44
2022-12-19T13:14:35.942Z,100444.09
2022-12-19T13:16:44.550Z,100442.38
2022-12-19T13:19:19.584Z,100443.22
2022-12-19T13:21:23.411Z,100436.28
2022-12-19T13:23:30.254Z,100414.03
2022-12-19T13:25:36.833Z,100428.63
2022-12-19T13:27:40.823Z,100462.16
2022-12-19T13:29:49.276Z,100419.19
2022-12-19T13:32:09.285Z,100414.13
2022-12-19T13:34:18.582Z,100412.38
2022-12-19T13:39:50.137Z,100418.41
2022-12-19T13:39:58.316Z,100469.94
2022-12-19T13:41:22.597Z,100416.63
2022-12-19T13:43:40.712Z,100420.97
2022-12-19T13:45:50.221Z,100409.78
2022-12-19T13:47:56.003Z,100407.16
2022-12-19T13:49:59.198Z,100407.22
2022-12-19T13:52:01.266Z,100396.88
2022-12-19T13:54:03.483Z,100399.56
2022-12-19T13:56:13.910Z,100385.72
2022-12-19T13:58:29.152Z,100390.03
2022-12-19T14:00:40.387Z,100394.31
2022-12-19T14:02:47.969Z,100438.19
2022-12-19T14:04:50.528Z,100402.03
2022-12-19T14:07:01.121Z,100389.16
2022-12-19T14:11:26.253Z,100407.28
2022-12-19T14:12:08.444Z,100388.38
2022-12-19T14:14:08.130Z,100401.28
2022-12-19T14:16:18.704Z,100392.69
2022-12-19T14:18:42.549Z,100394.41
2022-12-19T14:22:09.845Z,100386.56
2022-12-19T14:23:11.352Z,100387.44
2022-12-19T14:26:56.977Z,100384.03
2022-12-19T14:28:24.034Z,100390.88
2022-12-19T14:30:30.601Z,100387.47
2022-12-19T14:33:40.325Z,100385.66
2022-12-19T14:36:05.320Z,100378.94
2022-12-19T14:37:20.680Z,100398.72
2022-12-19T14:39:35.091Z,100396.09
2022-12-19T14:41:45.472Z,100389.22
2022-12-19T14:43:59.599Z,100393.53
2022-12-19T14:52:34.388Z,100390.16
2022-12-19T14:54:11.327Z,100371.03
2022-12-19T14:54:22.567Z,100395.25
2022-12-19T14:55:09.415Z,100360.84
2022-12-19T14:56:57.575Z,100363.44
2022-12-19T14:58:57.682Z,100370.25
2022-12-19T15:01:09.246Z,100372.13
2022-12-19T15:03:22.321Z,100378.03
2022-12-19T15:05:25.249Z,100387.59
2022-12-19T15:07:29.862Z,100405.59
2022-12-19T15:11:02.798Z,100394.47
2022-12-19T15:14:46.740Z,100424.59
2022-12-19T15:14:53.359Z,100382.38
2022-12-19T15:17:03.362Z,100379.75
2022-12-19T15:19:13.380Z,100370.41
2022-12-19T15:21:15.447Z,100366.91
2022-12-19T15:23:21.965Z,100383.22
2022-12-19T15:26:01.196Z,100395.25
2022-12-19T15:27:47.639Z,100385.78
2022-12-19T15:29:49.665Z,100428.81
2022-12-19T15:31:51.741Z,100390.13
2022-12-19T15:34:32.212Z,100391.03
2022-12-19T15:36:15.972Z,100401.34
2022-12-19T15:38:18.113Z,100403.00
2022-12-19T15:40:20.276Z,100387.59
2022-12-19T15:42:26.404Z,100383.28
2022-12-19T15:44:33.187Z,100383.22
2022-12-19T15:46:35.325Z,100404.72
2022-12-19T15:48:40.889Z,100418.38
2022-12-19T15:50:44.512Z,100385.75
2022-12-19T15:52:47.229Z,100404.72
2022-12-19T15:54:50.521Z,100403.88
2022-12-19T15:56:55.493Z,100387.53
2022-12-19T15:59:00.135Z,100392.63
2022-12-19T16:01:04.826Z,100390.97
2022-12-19T16:03:27.898Z,100389.31
2022-12-19T16:05:30.270Z,100385.72
2022-12-19T16:07:32.570Z,100375.50
2022-12-19T16:09:34.668Z,100391.91
2022-12-19T16:11:36.905Z,100388.47
2022-12-19T16:13:47.401Z,100390.09
2022-12-19T16:15:49.859Z,100384.09
2022-12-19T16:17:52.484Z,100392.75
2022-12-19T16:19:54.604Z,100391.75
2022-12-19T16:21:57.727Z,100396.13
2022-12-19T16:24:00.107Z,100393.59
2022-12-19T16:26:02.499Z,100387.53
2022-12-19T16:28:06.528Z,100372.03
2022-12-19T16:30:18.196Z,100390.25
2022-12-19T16:32:24.495Z,100389.31
2022-12-19T16:34:26.917Z,100395.34
2022-12-19T16:36:29.101Z,100393.69
2022-12-19T16:38:31.254Z,100419.53
2022-12-19T16:40:33.378Z,100397.16
2022-12-19T16:42:35.393Z,100389.38
2022-12-19T16:44:38.183Z,100406.53
2022-12-19T16:46:42.182Z,100403.97
2022-12-19T16:48:48.639Z,100406.59
2022-12-19T16:50:51.241Z,100398.00
2022-12-19T16:52:54.586Z,100416.00
2022-12-19T16:54:56.717Z,100401.38
2022-12-19T16:56:59.072Z,100410.88
2022-12-19T16:59:04.738Z,100407.31
2022-12-19T17:01:10.371Z,100390.09
2022-12-19T17:03:27.845Z,100398.78
2022-12-19T17:05:32.284Z,100401.44
2022-12-19T17:07:34.417Z,100407.53
2022-12-19T17:09:36.401Z,100401.50
2022-12-19T17:11:45.640Z,100411.81
2022-12-19T17:13:52.797Z,100406.66
2022-12-19T17:15:57.313Z,100406.63
2022-12-19T17:18:03.368Z,100404.03
2022-12-19T17:20:06.699Z,100432.44
2022-12-19T17:22:13.368Z,100399.78
2022-12-19T17:24:15.963Z,100411.03
2022-12-19T17:26:18.537Z,100404.13
2022-12-19T17:28:21.126Z,100405.00
2022-12-19T17:30:23.367Z,100398.06
2022-12-19T17:32:25.491Z,100397.25
2022-12-19T17:34:32.205Z,100399.91
2022-12-19T17:36:37.540Z,100406.75
2022-12-19T17:38:39.956Z,100400.66
2022-12-19T17:40:42.656Z,100391.25
2022-12-19T17:42:44.984Z,100403.34
2022-12-19T17:44:47.135Z,100385.16
2022-12-19T17:46:49.592Z,100396.31
2022-12-19T17:48:53.472Z,100392.00
2022-12-19T17:50:56.421Z,100393.75
2022-12-19T17:52:58.642Z,100402.25
2022-12-19T17:55:00.669Z,100383.44
2022-12-19T17:57:02.727Z,100392.97
2022-12-19T17:59:04.721Z,100393.78
2022-12-19T18:01:16.510Z,100386.81
2022-12-19T18:03:24.423Z,100391.97
2022-12-19T18:05:29.608Z,100396.34
2022-12-19T18:07:32.030Z,100401.56
2022-12-19T18:09:34.017Z,100382.63
2022-12-19T18:11:41.555Z,100398.97
2022-12-19T18:13:44.201Z,100392.91
2022-12-19T18:15:46.742Z,100399.78
2022-12-19T18:17:50.549Z,100403.16
2022-12-19T18:19:52.944Z,100399.78
2022-12-19T18:21:54.952Z,100397.22
2022-12-19T18:23:56.967Z,100390.38
2022-12-19T18:26:01.800Z,100406.75
2022-12-19T18:28:04.860Z,100423.88
2022-12-19T18:30:10.453Z,100398.06
2022-12-19T18:32:19.401Z,100398.06
2022-12-19T18:34:24.436Z,100397.13
2022-12-19T18:36:29.090Z,100404.94
2022-12-19T18:38:31.138Z,100427.34
2022-12-19T18:40:33.550Z,100414.50
2022-12-19T18:42:35.571Z,100427.38
2022-12-19T18:44:37.679Z,100429.97
2022-12-19T18:46:40.358Z,100411.84
2022-12-19T18:48:44.642Z,100425.69
2022-12-19T18:50:47.383Z,100406.72
2022-12-19T18:52:51.180Z,100408.53
2022-12-19T18:54:53.642Z,100417.91
2022-12-19T18:56:57.209Z,100417.13
2022-12-19T18:59:03.821Z,100403.28
2022-12-19T19:01:11.566Z,100409.31
2022-12-19T19:03:18.176Z,100407.59
2022-12-19T19:05:23.664Z,100409.25
2022-12-19T19:07:25.752Z,100411.84
2022-12-19T19:09:27.760Z,100406.72
2022-12-19T19:11:30.187Z,100435.16
2022-12-19T19:13:32.422Z,100405.81
2022-12-19T19:15:37.564Z,100414.34
2022-12-19T19:17:40.840Z,100414.41
2022-12-19T19:19:42.935Z,100410.19
2022-12-19T19:21:45.277Z,100428.31
2022-12-19T19:23:55.521Z,100417.91
2022-12-19T19:25:57.526Z,100427.31
2022-12-19T19:27:59.621Z,100417.06
2022-12-19T19:30:01.678Z,100423.09
2022-12-19T19:32:03.738Z,100411.97
2022-12-19T19:34:12.108Z,100410.16
2022-12-19T19:36:19.497Z,100420.38
2022-12-19T19:38:22.948Z,100411.03
2022-12-19T19:40:25.570Z,100421.31
2022-12-19T19:42:27.660Z,100414.41
2022-12-19T19:44:30.361Z,100419.53
2022-12-19T19:46:32.824Z,100407.59
2022-12-19T19:48:35.138Z,100420.44
2022-12-19T19:50:37.232Z,100413.69
2022-12-19T19:52:40.442Z,100407.66
2022-12-19T19:54:42.481Z,100422.28
2022-12-19T19:56:44.613Z,100416.16
2022-12-19T19:58:46.715Z,100424.75
2022-12-19T20:00:48.856Z,100400.59
2022-12-19T20:02:51.157Z,100401.44
2022-12-19T20:04:53.182Z,100393.69
2022-12-19T20:06:55.142Z,100415.22
2022-12-19T20:08:57.093Z,100392.03
2022-12-19T20:11:00.357Z,100424.63
2022-12-19T20:13:02.356Z,100396.25
2022-12-19T20:15:05.508Z,100398.84
2022-12-19T20:17:07.492Z,100417.72
2022-12-19T20:19:09.932Z,100427.16
2022-12-19T20:21:13.782Z,100405.72
2022-12-19T20:23:16.032Z,100412.63
2022-12-19T20:25:18.281Z,100408.31
2022-12-19T20:27:20.335Z,100409.97
2022-12-19T20:29:22.413Z,100402.28
2022-12-19T20:31:24.603Z,100394.50
2022-12-19T20:33:26.789Z,100410.03
2022-12-19T20:35:29.109Z,100404.81
2022-12-19T20:37:31.140Z,100404.88
2022-12-19T20:39:34.449Z,100403.09
2022-12-19T20:41:36.481Z,100413.47
2022-12-19T20:43:39.101Z,100419.56
2022-12-19T20:45:41.186Z,100420.44
2022-12-19T20:47:43.222Z,100414.47
2022-12-19T20:49:45.342Z,100429.97
2022-12-19T20:51:48.155Z,100429.94
2022-12-19T20:53:54.841Z,100421.31
2022-12-19T20:55:59.488Z,100420.44
2022-12-19T20:58:01.663Z,100412.69
2022-12-19T21:00:06.261Z,100416.91
2022-12-19T21:02:09.906Z,100428.19
2022-12-19T21:04:12.273Z,100411.00
2022-12-19T21:06:15.911Z,100428.25
2022-12-19T21:08:18.112Z,100440.25
2022-12-19T21:10:20.809Z,100417.00
2022-12-19T21:12:22.873Z,100409.28
2022-12-19T21:14:24.952Z,100403.25
2022-12-19T21:16:27.032Z,100405.00
2022-12-19T21:18:30.589Z,100417.00
2022-12-19T21:20:34.980Z,100398.06
2022-12-19T21:22:37.175Z,100392.97
2022-12-19T21:24:39.105Z,100395.50
2022-12-19T21:26:41.243Z,100393.81
2022-12-19T21:28:43.953Z,100373.22
2022-12-19T21:30:45.999Z,100421.44
2022-12-19T21:32:49.223Z,100392.19
2022-12-19T21:34:53.366Z,100398.13
2022-12-19T21:36:55.326Z,100404.22
2022-12-19T21:39:00.124Z,100379.25
2022-12-19T21:41:05.058Z,100399.09
2022-12-19T21:43:11.698Z,100397.44
2022-12-19T21:45:14.960Z,100395.75
2022-12-19T21:47:17.814Z,100393.06
2022-12-19T21:49:20.236Z,100396.47
2022-12-19T21:51:25.712Z,100408.53
2022-12-19T21:53:27.654Z,100436.06
2022-12-19T21:55:29.677Z,100389.63
2022-12-19T21:57:31.663Z,100412.84
2022-12-19T21:59:33.623Z,100382.69
2022-12-19T22:01:35.950Z,100405.88
2022-12-19T22:03:39.796Z,100398.97
2022-12-19T22:05:41.924Z,100409.31
2022-12-19T22:07:43.908Z,100410.19
2022-12-19T22:09:45.825Z,100387.00
2022-12-19T22:11:47.918Z,100389.50
2022-12-19T22:13:50.471Z,100406.75
2022-12-19T22:15:52.578Z,100399.03
2022-12-19T22:17:54.631Z,100380.97
2022-12-19T22:19:56.565Z,100391.34
2022-12-19T22:21:58.601Z,100373.25
2022-12-19T22:24:02.714Z,100392.16
2022-12-19T22:26:07.976Z,100371.50
2022-12-19T22:28:10.000Z,100374.94
2022-12-19T22:30:12.539Z,100399.84
2022-12-19T22:32:14.556Z,100383.53
2022-12-19T22:34:19.877Z,100370.63
2022-12-19T22:36:28.117Z,100369.78
2022-12-19T22:38:30.810Z,100357.72
2022-12-19T22:40:34.482Z,100383.50
2022-12-19T22:42:36.796Z,100380.09
2022-12-19T22:44:38.806Z,100374.94
2022-12-19T22:46:41.024Z,100345.66
2022-12-19T22:48:44.065Z,100362.03
2022-12-19T22:50:47.295Z,100356.88
2022-12-19T22:52:49.560Z,100341.41
2022-12-19T22:54:51.632Z,100347.44
2022-12-19T22:56:53.746Z,100358.59
2022-12-19T22:58:59.320Z,100425.72
2022-12-19T23:01:03.379Z,100370.59
2022-12-19T23:03:05.634Z,100355.09
2022-12-19T23:05:09.110Z,100356.00
2022-12-19T23:07:11.064Z,100360.34
2022-12-19T23:09:16.476Z,100349.09
2022-12-19T23:11:22.649Z,100337.91
2022-12-19T23:13:25.761Z,100349.97
2022-12-19T23:15:27.751Z,100320.75
2022-12-19T23:17:30.245Z,100350.84
2022-12-19T23:19:32.262Z,100360.34
2022-12-19T23:21:34.238Z,100362.06
2022-12-19T23:23:40.536Z,100339.66
2022-12-19T23:25:42.836Z,100339.69
2022-12-19T23:27:44.796Z,100355.19
2022-12-19T23:29:47.405Z,100348.28
2022-12-19T23:31:49.398Z,100356.00
2022-12-19T23:33:51.496Z,100341.38
2022-12-19T23:35:53.596Z,100341.31
2022-12-19T23:37:55.554Z,100329.31
2022-12-19T23:39:57.525Z,100348.25
2022-12-19T23:42:00.033Z,100331.91
2022-12-19T23:44:02.258Z,100351.69
2022-12-19T23:46:07.763Z,100340.50
2022-12-19T23:48:09.803Z,100324.16
2022-12-19T23:50:12.363Z,100335.34
2022-12-19T23:52:14.373Z,100327.59
2022-12-19T23:54:16.827Z,100339.69
2022-12-19T23:56:22.901Z,100331.09
2022-12-19T23:58:25.421Z,100341.44
